Time;durP1;ratioP1;P1;durP2;ratioP2;P2;SDS_P1;SDS_P2;PMS_P1;PMS_P2;Temp;Humidity;BMP_temperature;BMP_pressure;BME280_temperature;BME280_humidity;BME280_pressure;Samples;Min_cycle;Max_cycle;Signal;HPM_P1;HPM_P2
2023/10/05 00:00:33;;;;;;;10.27;3.10;;;14.90;99.90;;;;;;5021613;28;20044;-59
2023/10/05 00:02:45;;;;;;;9.93;2.70;;;14.90;99.90;;;;;;5025419;28;20041;-58
2023/10/05 00:05:12;;;;;;;12.13;3.28;;;15.00;99.90;;;;;;5024568;28;20042;-60
2023/10/05 00:07:39;;;;;;;14.07;2.97;;;15.00;99.90;;;;;;5013153;28;20106;-60
2023/10/05 00:10:06;;;;;;;11.88;3.10;;;15.00;99.90;;;;;;5022868;28;20132;-58
2023/10/05 00:12:34;;;;;;;16.98;3.75;;;15.00;99.90;;;;;;5024202;28;20045;-59
2023/10/05 00:17:30;;;;;;;13.35;3.20;;;15.00;99.90;;;;;;5006328;28;20049;-60
2023/10/05 00:19:56;;;;;;;13.27;2.70;;;15.00;99.90;;;;;;5023170;28;20053;-60
2023/10/05 00:22:22;;;;;;;15.10;3.25;;;15.00;99.90;;;;;;5021889;28;20040;-58
2023/10/05 00:24:49;;;;;;;12.30;3.03;;;15.10;99.90;;;;;;5017613;28;20042;-61
2023/10/05 00:27:15;;;;;;;18.27;4.88;;;15.10;99.90;;;;;;5024895;28;20055;-60
2023/10/05 00:29:41;;;;;;;9.15;2.83;;;15.10;99.90;;;;;;5007826;28;20077;-60
2023/10/05 00:35:42;;;;;;;10.50;3.22;;;15.10;99.90;;;;;;4992289;28;20053;-60
2023/10/05 00:38:14;;;;;;;12.25;3.15;;;15.10;99.90;;;;;;5002167;28;20163;-60
2023/10/05 00:40:54;;;;;;;13.07;2.90;;;15.10;99.90;;;;;;5014686;28;20088;-58
2023/10/05 00:45:49;;;;;;;13.15;3.00;;;15.10;99.90;;;;;;5016678;28;20470;-59
2023/10/05 00:48:30;;;;;;;11.75;2.90;;;15.10;99.90;;;;;;5018024;28;20072;-57
2023/10/05 00:51:00;;;;;;;10.15;2.28;;;15.10;99.90;;;;;;5005656;28;20069;-60
2023/10/05 00:53:30;;;;;;;11.10;2.35;;;15.10;99.90;;;;;;5020826;28;20060;-60
2023/10/05 00:56:11;;;;;;;10.18;2.60;;;15.00;99.90;;;;;;5024990;28;20059;-58
2023/10/05 00:58:47;;;;;;;11.45;2.45;;;15.00;99.90;;;;;;5019408;28;20041;-59
2023/10/05 01:01:16;;;;;;;13.57;3.15;;;15.00;99.90;;;;;;5006889;28;20095;-58
2023/10/05 01:06:43;;;;;;;11.35;2.28;;;15.00;99.90;;;;;;5022794;28;20081;-59
2023/10/05 01:09:21;;;;;;;8.40;2.42;;;15.00;99.90;;;;;;5022558;28;20520;-60
2023/10/05 01:11:54;;;;;;;12.55;2.40;;;15.00;99.90;;;;;;4994446;28;20068;-60
2023/10/05 01:14:23;;;;;;;10.10;2.33;;;15.00;99.90;;;;;;5006828;28;20515;-58
2023/10/05 01:16:49;;;;;;;12.10;2.83;;;15.00;99.90;;;;;;5021510;28;20379;-59
2023/10/05 01:19:15;;;;;;;15.20;2.70;;;15.00;99.90;;;;;;5007144;28;20049;-58
2023/10/05 01:21:43;;;;;;;8.95;2.25;;;15.00;99.90;;;;;;5019329;28;20322;-58
2023/10/05 01:24:13;;;;;;;10.23;2.38;;;15.00;99.90;;;;;;5017528;28;20079;-60
2023/10/05 01:26:40;;;;;;;11.00;2.42;;;15.00;99.90;;;;;;5003201;28;20128;-60
2023/10/05 01:29:06;;;;;;;12.32;2.72;;;15.00;99.90;;;;;;5024392;28;20041;-60
2023/10/05 01:31:32;;;;;;;9.85;2.75;;;15.00;99.90;;;;;;5023294;28;20042;-59
2023/10/05 01:33:59;;;;;;;16.40;2.70;;;15.00;99.90;;;;;;5026428;28;20045;-57
2023/10/05 01:36:25;;;;;;;13.73;2.47;;;15.00;99.90;;;;;;4993367;28;20280;-61
2023/10/05 01:38:54;;;;;;;13.98;3.20;;;15.00;99.90;;;;;;5024962;28;20497;-61
2023/10/05 01:41:22;;;;;;;11.68;3.28;;;15.10;99.90;;;;;;5028765;28;20041;-60
2023/10/05 01:43:48;;;;;;;9.63;2.70;;;15.00;99.90;;;;;;5023209;28;20052;-59
2023/10/05 01:46:15;;;;;;;14.40;3.05;;;15.10;99.90;;;;;;5027470;28;20444;-59
2023/10/05 01:48:41;;;;;;;15.55;2.95;;;15.10;99.90;;;;;;5026760;28;20128;-59
2023/10/05 01:51:14;;;;;;;9.40;2.65;;;15.10;99.90;;;;;;5010598;28;20046;-59
2023/10/05 01:53:40;;;;;;;11.20;2.40;;;15.10;99.90;;;;;;5011377;28;20048;-60
2023/10/05 01:56:20;;;;;;;17.50;3.60;;;15.10;99.90;;;;;;5023435;28;20037;-60
2023/10/05 01:58:50;;;;;;;13.45;2.90;;;15.10;99.90;;;;;;5027747;28;20048;-60
2023/10/05 02:01:18;;;;;;;9.10;2.30;;;15.10;99.90;;;;;;5012878;28;20044;-60
2023/10/05 02:03:44;;;;;;;14.80;2.63;;;15.10;99.90;;;;;;5026443;28;20037;-60
2023/10/05 02:06:15;;;;;;;13.18;2.95;;;15.10;99.90;;;;;;5025209;28;20408;-60
2023/10/05 02:08:42;;;;;;;10.70;2.72;;;15.10;99.90;;;;;;5007996;28;20033;-60
2023/10/05 02:11:09;;;;;;;14.40;2.53;;;15.10;99.90;;;;;;5008060;28;20041;-60
2023/10/05 02:13:35;;;;;;;10.63;3.40;;;15.10;99.90;;;;;;5042122;28;20381;-60
2023/10/05 02:16:14;;;;;;;13.27;3.20;;;15.10;99.90;;;;;;5023761;28;20045;-59
2023/10/05 02:18:39;;;;;;;15.90;3.15;;;15.10;99.90;;;;;;5021899;28;20048;-60
2023/10/05 02:21:07;;;;;;;14.73;3.72;;;15.00;99.90;;;;;;5009507;28;20046;-60
2023/10/05 02:23:44;;;;;;;9.45;3.28;;;15.10;99.90;;;;;;5024986;28;20581;-60
2023/10/05 02:28:57;;;;;;;16.00;3.67;;;15.10;99.90;;;;;;5025204;28;20073;-60
2023/10/05 02:31:28;;;;;;;18.27;3.33;;;15.10;99.90;;;;;;5029038;28;20099;-60
2023/10/05 02:33:55;;;;;;;15.13;3.30;;;15.10;99.90;;;;;;5028767;28;20037;-60
2023/10/05 02:36:26;;;;;;;13.02;3.10;;;15.10;99.90;;;;;;5005805;28;20550;-60
2023/10/05 02:38:56;;;;;;;12.60;3.35;;;15.00;99.90;;;;;;5024262;28;20430;-60
2023/10/05 02:41:39;;;;;;;13.63;4.22;;;15.00;99.90;;;;;;5024329;28;20060;-60
2023/10/05 02:44:17;;;;;;;15.73;3.78;;;15.00;99.90;;;;;;5010286;28;20064;-58
2023/10/05 02:46:48;;;;;;;14.00;3.13;;;15.00;99.90;;;;;;5021818;28;20065;-60
2023/10/05 02:49:18;;;;;;;15.52;3.38;;;15.00;99.90;;;;;;5025753;28;20041;-59
2023/10/05 02:51:44;;;;;;;15.27;3.60;;;15.00;99.90;;;;;;5019918;28;20104;-60
2023/10/05 02:54:12;;;;;;;13.07;3.70;;;15.00;99.90;;;;;;5025860;28;20156;-60
2023/10/05 02:56:41;;;;;;;11.95;3.13;;;15.00;99.90;;;;;;5025312;28;20060;-59
2023/10/05 02:59:08;;;;;;;15.00;4.07;;;15.00;99.90;;;;;;5017782;28;20535;-60
2023/10/05 03:01:37;;;;;;;13.05;3.45;;;15.00;99.90;;;;;;5022755;28;20302;-60
2023/10/05 03:04:16;;;;;;;11.63;3.38;;;15.00;99.90;;;;;;5025651;28;20045;-60
2023/10/05 03:06:43;;;;;;;12.30;3.53;;;15.00;99.90;;;;;;5005665;28;20448;-60
2023/10/05 03:09:09;;;;;;;16.35;4.15;;;15.00;99.90;;;;;;5025091;28;20045;-58
2023/10/05 03:12:13;;;;;;;13.82;3.33;;;14.90;99.90;;;;;;5018271;28;20390;-60
2023/10/05 03:14:44;;;;;;;18.02;3.78;;;15.00;99.90;;;;;;5019302;28;20096;-60
2023/10/05 03:17:18;;;;;;;14.27;3.60;;;14.90;99.90;;;;;;5021505;28;20041;-59
2023/10/05 03:20:09;;;;;;;12.63;2.42;;;14.90;99.90;;;;;;5009925;28;20045;-60
2023/10/05 03:22:35;;;;;;;12.85;3.75;;;14.90;99.90;;;;;;5007121;28;20048;-60
2023/10/05 03:25:01;;;;;;;16.80;3.67;;;14.90;99.90;;;;;;5020467;28;20481;-59
2023/10/05 03:27:27;;;;;;;13.73;3.35;;;14.90;99.90;;;;;;5005705;28;20037;-59
2023/10/05 03:29:57;;;;;;;15.63;3.92;;;14.90;99.90;;;;;;5017588;28;20087;-59
2023/10/05 03:32:28;;;;;;;12.15;3.60;;;14.80;99.90;;;;;;5020991;28;20045;-60
2023/10/05 03:34:56;;;;;;;13.65;3.90;;;14.90;99.90;;;;;;5026724;28;20037;-60
2023/10/05 03:37:22;;;;;;;14.38;3.22;;;14.80;99.90;;;;;;5007097;28;20108;-60
2023/10/05 03:39:51;;;;;;;14.27;3.20;;;14.80;99.90;;;;;;5023511;28;20543;-60
2023/10/05 03:42:17;;;;;;;20.52;3.75;;;14.80;99.90;;;;;;5014378;28;20045;-60
2023/10/05 03:44:43;;;;;;;12.15;3.55;;;14.80;99.90;;;;;;5025266;28;20049;-60
2023/10/05 03:47:11;;;;;;;16.65;3.92;;;14.80;99.90;;;;;;5018790;28;20408;-60
2023/10/05 03:49:36;;;;;;;13.68;3.88;;;14.80;99.90;;;;;;5019553;28;20068;-60
2023/10/05 03:52:06;;;;;;;14.65;4.05;;;14.80;99.90;;;;;;5012636;28;20523;-60
2023/10/05 03:54:33;;;;;;;14.98;3.00;;;14.80;99.90;;;;;;5026342;28;20450;-60
2023/10/05 03:57:10;;;;;;;18.77;3.53;;;14.80;99.90;;;;;;5007127;28;20128;-60
2023/10/05 03:59:36;;;;;;;15.13;3.38;;;14.80;99.90;;;;;;5006746;28;20049;-60
2023/10/05 04:02:04;;;;;;;14.25;3.47;;;14.90;99.90;;;;;;5015498;28;20053;-60
2023/10/05 04:04:31;;;;;;;13.25;3.60;;;14.80;99.90;;;;;;5024705;28;20045;-60
2023/10/05 04:06:57;;;;;;;16.17;3.53;;;14.90;99.90;;;;;;5019908;28;20150;-60
2023/10/05 04:09:28;;;;;;;16.60;3.70;;;14.90;99.90;;;;;;5006260;28;20038;-60
2023/10/05 04:11:55;;;;;;;14.82;3.10;;;14.90;99.90;;;;;;5004722;28;20052;-60
2023/10/05 04:14:20;;;;;;;18.17;3.90;;;14.90;99.90;;;;;;5019022;28;20037;-60
2023/10/05 04:16:48;;;;;;;18.75;3.38;;;14.90;99.90;;;;;;5022502;28;20132;-60
2023/10/05 04:19:17;;;;;;;16.25;3.72;;;14.90;99.90;;;;;;5025457;28;20120;-60
2023/10/05 04:21:44;;;;;;;13.57;3.38;;;14.90;99.90;;;;;;5002063;28;20159;-60
2023/10/05 04:24:14;;;;;;;18.55;3.70;;;15.00;99.90;;;;;;5022117;28;20396;-59
2023/10/05 04:26:44;;;;;;;18.63;3.92;;;15.00;99.90;;;;;;5021424;28;20120;-59
2023/10/05 04:29:11;;;;;;;13.52;3.72;;;15.00;99.90;;;;;;5004395;28;20037;-60
2023/10/05 04:31:37;;;;;;;13.18;3.60;;;15.00;99.90;;;;;;5023835;28;20041;-58
2023/10/05 04:34:18;;;;;;;16.20;3.58;;;15.00;99.90;;;;;;5020882;28;20509;-59
2023/10/05 04:36:48;;;;;;;16.65;3.92;;;15.00;99.90;;;;;;5021649;28;20474;-60
2023/10/05 04:39:36;;;;;;;17.95;3.38;;;15.00;99.90;;;;;;5003094;28;20050;-60
2023/10/05 04:42:06;;;;;;;18.65;3.80;;;15.00;99.90;;;;;;5018370;28;20500;-60
2023/10/05 04:44:34;;;;;;;16.20;3.63;;;15.00;99.90;;;;;;5021755;28;20060;-60
2023/10/05 04:46:59;;;;;;;12.98;3.25;;;15.00;99.90;;;;;;5005639;28;20042;-60
2023/10/05 04:49:27;;;;;;;15.23;3.22;;;15.00;99.90;;;;;;5025751;28;20432;-59
2023/10/05 04:51:56;;;;;;;19.23;4.45;;;15.00;99.90;;;;;;5016635;28;20061;-58
2023/10/05 04:54:25;;;;;;;14.35;3.20;;;15.00;99.90;;;;;;5021119;28;20081;-60
2023/10/05 04:57:03;;;;;;;12.32;3.58;;;15.00;99.90;;;;;;5021527;28;20050;-58
2023/10/05 05:02:11;;;;;;;14.57;4.25;;;15.00;99.90;;;;;;5024185;28;20053;-59
2023/10/05 05:04:41;;;;;;;19.52;4.00;;;15.00;99.90;;;;;;5011338;28;20060;-59
2023/10/05 05:07:08;;;;;;;12.25;3.60;;;15.00;99.90;;;;;;5016712;28;20077;-59
2023/10/05 05:09:39;;;;;;;13.20;4.13;;;15.00;99.90;;;;;;5021906;28;20045;-59
2023/10/05 05:12:09;;;;;;;15.95;3.80;;;15.00;99.90;;;;;;5016510;28;20041;-58
2023/10/05 05:14:41;;;;;;;16.83;3.60;;;15.00;99.90;;;;;;5021909;28;20045;-59
2023/10/05 05:17:10;;;;;;;13.93;3.47;;;15.00;99.90;;;;;;5020926;28;20457;-60
2023/10/05 05:19:39;;;;;;;14.55;3.85;;;15.00;99.90;;;;;;5021226;28;20081;-60
2023/10/05 05:22:06;;;;;;;22.40;4.20;;;15.00;99.90;;;;;;5004274;28;20120;-60
2023/10/05 05:24:38;;;;;;;18.60;3.72;;;15.00;99.90;;;;;;5014727;28;20395;-60
2023/10/05 05:27:11;;;;;;;13.13;3.85;;;15.00;99.90;;;;;;5005795;28;20452;-60
2023/10/05 05:29:37;;;;;;;17.08;3.22;;;15.00;99.90;;;;;;5020154;28;20048;-60
2023/10/05 05:32:13;;;;;;;14.10;4.07;;;15.00;99.90;;;;;;5014144;28;20047;-59
2023/10/05 05:34:41;;;;;;;16.55;3.80;;;15.00;99.90;;;;;;4991984;28;20045;-59
2023/10/05 05:39:45;;;;;;;18.00;3.92;;;15.00;99.90;;;;;;5028049;28;20048;-59
2023/10/05 05:42:14;;;;;;;20.38;4.40;;;15.10;99.90;;;;;;5022480;28;20045;-59
2023/10/05 05:44:41;;;;;;;15.18;3.42;;;15.00;99.90;;;;;;5001449;28;20049;-60
2023/10/05 05:47:10;;;;;;;13.65;3.42;;;15.10;99.90;;;;;;5021516;28;20107;-59
2023/10/05 05:49:38;;;;;;;17.73;4.32;;;15.10;99.90;;;;;;5016678;28;20121;-59
2023/10/05 05:52:05;;;;;;;26.80;4.78;;;15.10;99.90;;;;;;5022882;28;20120;-57
2023/10/05 05:54:37;;;;;;;12.45;3.40;;;15.10;99.90;;;;;;5022224;28;20115;-60
2023/10/05 05:57:07;;;;;;;18.17;3.60;;;15.10;99.90;;;;;;5015905;28;20510;-60
2023/10/05 05:59:38;;;;;;;11.77;4.13;;;15.10;99.90;;;;;;5021439;28;20053;-59
2023/10/05 06:02:07;;;;;;;16.48;4.28;;;15.10;99.90;;;;;;5022776;28;20045;-60
2023/10/05 06:04:33;;;;;;;13.82;3.47;;;15.10;99.90;;;;;;5019845;28;20049;-59
2023/10/05 06:07:00;;;;;;;14.02;4.03;;;15.10;99.90;;;;;;5015199;28;20137;-58
2023/10/05 06:09:27;;;;;;;22.25;4.25;;;15.20;99.90;;;;;;5019379;28;20107;-58
2023/10/05 06:11:53;;;;;;;16.83;4.15;;;15.20;99.90;;;;;;5021277;28;20068;-59
2023/10/05 06:14:19;;;;;;;16.13;3.88;;;15.20;99.90;;;;;;5034037;28;20033;-60
2023/10/05 06:16:45;;;;;;;17.85;4.18;;;15.20;99.90;;;;;;5019698;28;20474;-60
2023/10/05 06:19:12;;;;;;;16.77;3.80;;;15.20;99.90;;;;;;5023701;28;20037;-60
2023/10/05 06:21:39;;;;;;;15.85;3.60;;;15.20;99.90;;;;;;5025472;28;20077;-60
2023/10/05 06:24:05;;;;;;;16.83;4.57;;;15.20;99.90;;;;;;5023589;28;20471;-59
2023/10/05 06:26:31;;;;;;;15.20;4.03;;;15.20;99.90;;;;;;5022861;28;20042;-60
2023/10/05 06:28:57;;;;;;;16.08;3.78;;;15.20;99.90;;;;;;5024030;28;20053;-60
2023/10/05 06:31:23;;;;;;;17.23;3.72;;;15.20;99.90;;;;;;5027161;28;20103;-59
2023/10/05 06:33:49;;;;;;;19.48;4.53;;;15.20;99.90;;;;;;5023429;28;20041;-59
2023/10/05 06:36:15;;;;;;;15.65;3.80;;;15.30;99.90;;;;;;5007068;28;20044;-60
2023/10/05 06:38:40;;;;;;;12.73;3.65;;;15.30;99.90;;;;;;5021574;28;20049;-59
2023/10/05 06:41:06;;;;;;;18.20;3.75;;;15.30;99.90;;;;;;5025070;28;20084;-60
2023/10/05 06:43:35;;;;;;;13.20;4.15;;;15.30;99.90;;;;;;5019702;28;20148;-60
2023/10/05 06:46:09;;;;;;;14.70;3.78;;;15.30;99.90;;;;;;5014849;28;20045;-60
2023/10/05 06:48:37;;;;;;;;;;;15.30;99.90;;;;;;5026905;28;20060;-60
2023/10/05 06:51:03;;;;;;;12.68;3.45;;;15.30;99.90;;;;;;5022834;28;19917;-60
2023/10/05 06:53:29;;;;;;;12.65;3.35;;;15.30;99.90;;;;;;5022913;28;20065;-60
2023/10/05 06:55:56;;;;;;;20.80;4.05;;;15.20;99.90;;;;;;5024345;28;20131;-60
2023/10/05 06:58:22;;;;;;;10.07;2.85;;;15.20;99.90;;;;;;5017757;28;20045;-60
2023/10/05 07:00:48;;;;;;;14.00;3.53;;;15.20;99.90;;;;;;5004009;28;20045;-60
2023/10/05 07:03:13;;;;;;;12.18;3.65;;;15.20;99.90;;;;;;5020167;28;20092;-60
2023/10/05 07:05:39;;;;;;;12.43;3.42;;;15.30;99.90;;;;;;5023926;28;20084;-58
2023/10/05 07:08:07;;;;;;;18.08;4.22;;;15.30;99.90;;;;;;5002662;28;20131;-60
2023/10/05 07:10:33;;;;;;;20.92;3.80;;;15.30;99.90;;;;;;5015290;28;20148;-60
2023/10/05 07:12:58;;;;;;;16.60;4.03;;;15.30;99.90;;;;;;5019472;28;20064;-60
2023/10/05 07:15:24;;;;;;;15.63;3.63;;;15.30;99.90;;;;;;5006657;28;20030;-60
2023/10/05 07:17:50;;;;;;;16.60;3.92;;;15.30;99.90;;;;;;5020666;28;20041;-60
2023/10/05 07:20:17;;;;;;;13.70;3.78;;;15.30;99.90;;;;;;5006133;28;20637;-60
2023/10/05 07:22:44;;;;;;;17.27;4.32;;;15.40;99.90;;;;;;5023870;28;20049;-59
2023/10/05 07:25:11;;;;;;;18.42;3.75;;;15.30;99.90;;;;;;5003696;28;20049;-60
2023/10/05 07:27:38;;;;;;;12.95;3.83;;;15.30;99.90;;;;;;5021919;28;20594;-60
2023/10/05 07:30:05;;;;;;;17.55;3.42;;;15.30;99.90;;;;;;5022730;28;20046;-60
2023/10/05 07:32:32;;;;;;;13.65;3.90;;;15.20;99.90;;;;;;5019441;28;20042;-60
2023/10/05 07:34:58;;;;;;;12.48;4.05;;;15.30;99.90;;;;;;5021476;28;20481;-60
2023/10/05 07:37:23;;;;;;;12.52;4.68;;;15.30;99.90;;;;;;5018837;28;20045;-59
2023/10/05 07:39:51;;;;;;;16.40;5.25;;;15.30;99.90;;;;;;5020777;28;20073;-57
2023/10/05 07:42:17;;;;;;;14.80;3.95;;;15.30;99.90;;;;;;5022970;28;20111;-59
2023/10/05 07:44:43;;;;;;;16.83;4.60;;;15.30;99.90;;;;;;5023690;28;20054;-60
2023/10/05 07:47:11;;;;;;;18.50;4.47;;;15.30;99.90;;;;;;5019563;28;20057;-60
2023/10/05 07:49:38;;;;;;;22.45;4.47;;;15.30;99.90;;;;;;5003036;28;20075;-60
2023/10/05 07:52:07;;;;;;;16.95;4.80;;;15.40;99.90;;;;;;5015660;28;20735;-60
2023/10/05 07:54:34;;;;;;;11.55;3.58;;;15.40;99.90;;;;;;5019513;28;20053;-60
2023/10/05 07:57:01;;;;;;;23.13;4.55;;;15.30;99.90;;;;;;5007500;28;20405;-60
2023/10/05 07:59:28;;;;;;;18.65;3.80;;;15.30;99.90;;;;;;5024417;28;20045;-58
2023/10/05 08:01:55;;;;;;;15.07;3.85;;;15.40;99.90;;;;;;5018928;28;20060;-60
2023/10/05 08:04:22;;;;;;;18.60;4.13;;;15.40;99.90;;;;;;5016514;28;20052;-59
2023/10/05 08:06:49;;;;;;;17.58;3.75;;;15.40;99.90;;;;;;5018029;28;20049;-60
2023/10/05 08:09:15;;;;;;;12.80;3.78;;;15.50;99.90;;;;;;5004594;28;20133;-58
2023/10/05 08:11:44;;;;;;;16.30;4.15;;;15.50;99.90;;;;;;5012368;28;20037;-59
2023/10/05 08:14:13;;;;;;;16.08;4.20;;;15.60;99.90;;;;;;5012902;28;20165;-59
2023/10/05 08:16:39;;;;;;;18.77;4.00;;;15.60;99.90;;;;;;5011875;28;20153;-60
2023/10/05 08:19:05;;;;;;;13.65;3.28;;;15.60;99.90;;;;;;5018019;28;20148;-60
2023/10/05 08:21:32;;;;;;;13.38;3.65;;;15.50;99.90;;;;;;5021424;28;20095;-58
2023/10/05 08:23:58;;;;;;;13.05;3.67;;;15.60;99.90;;;;;;5022772;28;20408;-59
2023/10/05 08:26:28;;;;;;;9.98;3.55;;;15.50;99.90;;;;;;5007507;28;20041;-60
2023/10/05 08:28:57;;;;;;;19.38;3.80;;;15.60;99.90;;;;;;5020599;28;20547;-57
2023/10/05 08:31:24;;;;;;;14.40;3.63;;;15.70;99.90;;;;;;5024806;28;20405;-58
2023/10/05 08:33:53;;;;;;;19.38;3.97;;;15.70;99.90;;;;;;5019510;28;20124;-58
2023/10/05 08:36:22;;;;;;;17.08;4.50;;;15.70;99.90;;;;;;5021810;28;20037;-58
2023/10/05 08:38:49;;;;;;;15.48;3.78;;;15.70;99.90;;;;;;5024161;28;20060;-59
2023/10/05 08:41:31;;;;;;;11.98;3.92;;;15.70;99.90;;;;;;5025100;28;20041;-60
2023/10/05 08:44:06;;;;;;;11.52;3.80;;;15.70;99.90;;;;;;5020522;28;20049;-60
2023/10/05 08:46:42;;;;;;;15.07;3.85;;;15.70;99.90;;;;;;5025310;28;20050;-60
2023/10/05 08:49:11;;;;;;;11.88;3.38;;;15.70;99.90;;;;;;5022997;28;20057;-60
2023/10/05 08:51:40;;;;;;;14.40;3.70;;;15.70;99.90;;;;;;5023382;28;20146;-59
2023/10/05 08:54:09;;;;;;;11.63;4.03;;;15.80;99.90;;;;;;5003524;28;20124;-60
2023/10/05 08:56:45;;;;;;;13.63;4.03;;;15.90;99.90;;;;;;5021904;28;20053;-59
2023/10/05 08:59:19;;;;;;;15.57;4.30;;;15.80;99.90;;;;;;5022927;28;20041;-60
2023/10/05 09:01:46;;;;;;;14.88;3.50;;;15.80;99.90;;;;;;5024416;28;20033;-60
2023/10/05 09:06:47;;;;;;;11.75;3.70;;;15.90;99.90;;;;;;5024454;28;20511;-59
2023/10/05 09:09:15;;;;;;;12.10;3.88;;;15.90;99.90;;;;;;5021439;28;20384;-59
2023/10/05 09:11:41;;;;;;;13.02;3.63;;;16.00;99.90;;;;;;5023041;28;20037;-59
2023/10/05 09:14:13;;;;;;;13.65;3.65;;;16.10;99.90;;;;;;5022928;28;20045;-59
2023/10/05 09:16:43;;;;;;;13.80;4.10;;;16.10;99.90;;;;;;5019243;28;20037;-60
2023/10/05 09:19:13;;;;;;;13.82;4.22;;;16.20;99.90;;;;;;5018274;28;20037;-60
2023/10/05 09:22:23;;;;;;;11.70;3.78;;;16.10;99.90;;;;;;5015039;28;20056;-60
2023/10/05 09:24:52;;;;;;;13.93;4.00;;;16.20;99.90;;;;;;5013970;28;20156;-60
2023/10/05 09:27:19;;;;;;;15.93;3.42;;;16.20;99.90;;;;;;5022958;28;20132;-60
2023/10/05 09:29:46;;;;;;;14.70;3.97;;;16.20;99.90;;;;;;5023189;28;20116;-59
2023/10/05 09:32:30;;;;;;;16.65;3.95;;;16.20;99.90;;;;;;5021370;28;20196;-60
2023/10/05 09:35:00;;;;;;;15.27;4.88;;;16.20;99.90;;;;;;5024057;28;20045;-60
2023/10/05 09:37:29;;;;;;;17.73;4.63;;;16.10;99.90;;;;;;5022225;28;20115;-59
2023/10/05 09:39:59;;;;;;;15.40;4.85;;;16.00;99.90;;;;;;5022647;28;20052;-60
2023/10/05 09:42:26;;;;;;;19.00;4.68;;;15.90;99.90;;;;;;5021614;28;20049;-59
2023/10/05 09:45:06;;;;;;;17.88;4.70;;;15.90;99.90;;;;;;5022443;28;20524;-60
2023/10/05 09:47:33;;;;;;;17.15;4.40;;;15.90;99.90;;;;;;5019363;28;20505;-60
2023/10/05 09:50:01;;;;;;;14.68;3.85;;;15.90;99.90;;;;;;5025877;28;20049;-59
2023/10/05 09:52:37;;;;;;;12.68;4.47;;;15.90;99.90;;;;;;5026339;28;20130;-60
2023/10/05 09:55:05;;;;;;;17.80;4.43;;;15.90;99.90;;;;;;5026812;28;20452;-59
2023/10/05 09:57:41;;;;;;;15.95;4.80;;;15.90;99.90;;;;;;5027350;28;20151;-60
2023/10/05 10:02:59;;;;;;;12.80;4.45;;;15.90;99.90;;;;;;5020401;28;20496;-60
2023/10/05 10:05:41;;;;;;;15.73;4.30;;;15.90;99.90;;;;;;5027427;28;20056;-60
2023/10/05 10:08:20;;;;;;;16.58;4.03;;;15.80;99.90;;;;;;5020696;28;20374;-60
2023/10/05 10:11:06;;;;;;;11.43;4.15;;;15.80;99.90;;;;;;5027184;28;20072;-60
2023/10/05 10:13:39;;;;;;;15.38;3.83;;;15.80;99.90;;;;;;5009849;28;20042;-59
2023/10/05 10:16:21;;;;;;;12.95;3.95;;;15.80;99.90;;;;;;5023060;28;20046;-59
2023/10/05 10:19:19;;;;;;;9.95;3.60;;;15.80;99.90;;;;;;5027703;28;20075;-59
2023/10/05 10:22:11;;;;;;;10.65;3.95;;;16.00;99.90;;;;;;5020644;28;20333;-60
2023/10/05 10:24:37;;;;;;;14.70;4.22;;;16.10;99.90;;;;;;5009082;28;20520;-59
2023/10/05 10:27:08;;;;;;;16.50;4.43;;;16.20;99.90;;;;;;5024725;28;20034;-59
2023/10/05 10:29:56;;;;;;;13.20;3.97;;;16.40;99.90;;;;;;5005633;28;20033;-60
2023/10/05 10:32:32;;;;;;;15.05;3.88;;;16.60;99.90;;;;;;5022408;28;20033;-59
2023/10/05 10:35:13;;;;;;;13.68;4.07;;;16.70;99.90;;;;;;5004886;28;20093;-60
2023/10/05 10:37:48;;;;;;;13.20;4.20;;;17.00;99.90;;;;;;5019960;28;20049;-60
2023/10/05 10:40:26;;;;;;;18.35;5.32;;;17.00;99.90;;;;;;5001419;28;20480;-61
2023/10/05 10:45:40;;;;;;;11.80;3.83;;;17.10;99.90;;;;;;5017128;28;20465;-59
2023/10/05 10:48:20;;;;;;;11.75;3.20;;;17.00;99.90;;;;;;5018008;28;20047;-60
2023/10/05 10:50:47;;;;;;;15.85;3.95;;;17.20;99.90;;;;;;5020542;28;20330;-59
2023/10/05 10:53:17;;;;;;;14.15;4.65;;;17.30;99.90;;;;;;5018644;28;20046;-60
2023/10/05 10:55:51;;;;;;;15.25;3.80;;;17.50;99.90;;;;;;5025516;28;20057;-59
2023/10/05 10:58:23;;;;;;;10.95;3.42;;;17.80;99.90;;;;;;4998250;28;20512;-59
2023/10/05 11:00:59;;;;;;;14.63;3.42;;;18.10;99.90;;;;;;5015159;28;20157;-58
2023/10/05 11:03:30;;;;;;;13.65;3.03;;;18.20;99.90;;;;;;5018593;28;20041;-59
2023/10/05 11:05:58;;;;;;;11.85;3.90;;;18.30;99.90;;;;;;5006719;28;20102;-60
2023/10/05 11:08:24;;;;;;;11.52;3.03;;;18.20;99.90;;;;;;5019627;28;20119;-61
2023/10/05 11:11:06;;;;;;;16.83;3.88;;;18.10;99.90;;;;;;5015211;28;20383;-59
2023/10/05 11:13:33;;;;;;;13.80;4.00;;;18.00;99.90;;;;;;5021282;28;20091;-57
2023/10/05 11:15:59;;;;;;;12.32;3.15;;;17.80;99.90;;;;;;5013426;28;20034;-56
2023/10/05 11:18:40;;;;;;;18.38;4.00;;;17.80;99.90;;;;;;5018989;28;20056;-57
2023/10/05 11:21:17;;;;;;;15.93;3.38;;;17.80;99.90;;;;;;4995664;28;20049;-58
2023/10/05 11:23:47;;;;;;;13.88;3.55;;;17.90;99.90;;;;;;5016943;28;20081;-56
2023/10/05 11:26:17;;;;;;;11.55;3.95;;;18.00;99.90;;;;;;5021583;28;20582;-57
2023/10/05 11:28:49;;;;;;;12.65;3.88;;;18.20;99.90;;;;;;4999411;28;20685;-58
2023/10/05 11:31:23;;;;;;;17.63;4.03;;;18.20;99.90;;;;;;5000922;28;20037;-56
2023/10/05 11:33:53;;;;;;;10.45;3.22;;;18.10;99.90;;;;;;5016038;28;20736;-57
2023/10/05 11:36:33;;;;;;;14.85;4.18;;;17.90;99.90;;;;;;5019993;28;20519;-58
2023/10/05 11:39:00;;;;;;;12.65;3.50;;;17.90;99.90;;;;;;5019255;28;20056;-57
2023/10/05 11:41:30;;;;;;;15.50;4.00;;;17.80;99.90;;;;;;5009408;28;20428;-57
2023/10/05 11:43:56;;;;;;;16.33;3.38;;;17.70;99.90;;;;;;5012888;28;20255;-57
2023/10/05 11:46:48;;;;;;;15.45;3.63;;;17.70;99.90;;;;;;5002889;28;20099;-56
2023/10/05 11:49:14;;;;;;;13.27;3.80;;;17.40;99.90;;;;;;5004896;28;20038;-56
2023/10/05 11:51:48;;;;;;;11.38;3.38;;;17.10;99.90;;;;;;5007066;28;20033;-58
2023/10/05 11:54:19;;;;;;;10.15;3.28;;;16.80;99.90;;;;;;5015411;28;20558;-58
2023/10/05 11:56:46;;;;;;;10.45;2.65;;;16.70;99.90;;;;;;5024290;28;20103;-58
2023/10/05 11:59:12;;;;;;;9.85;2.58;;;16.60;99.90;;;;;;5018222;28;20079;-57
2023/10/05 12:01:41;;;;;;;8.02;2.88;;;16.60;99.90;;;;;;5022788;28;20065;-57
2023/10/05 12:04:10;;;;;;;8.13;2.90;;;16.60;99.90;;;;;;5007515;28;20120;-58
2023/10/05 12:06:39;;;;;;;10.40;3.28;;;16.60;99.90;;;;;;5017797;28;20055;-58
2023/10/05 12:09:07;;;;;;;14.20;3.58;;;16.60;99.90;;;;;;5028859;28;20099;-57
2023/10/05 12:11:34;;;;;;;12.05;3.00;;;16.50;99.90;;;;;;5018842;28;20283;-58
2023/10/05 12:14:00;;;;;;;13.05;3.95;;;16.40;99.90;;;;;;4998417;28;20347;-57
2023/10/05 12:16:27;;;;;;;12.80;3.33;;;16.40;99.90;;;;;;5016481;28;20408;-58
2023/10/05 12:18:54;;;;;;;14.35;3.58;;;16.30;99.90;;;;;;5021963;28;20049;-58
2023/10/05 12:21:23;;;;;;;12.32;4.40;;;16.40;99.90;;;;;;5017855;28;20116;-60
2023/10/05 12:23:49;;;;;;;14.57;4.43;;;16.40;99.90;;;;;;5004972;28;20056;-60
2023/10/05 12:26:15;;;;;;;15.63;3.85;;;16.40;99.90;;;;;;5002786;28;20439;-60
2023/10/05 12:28:41;;;;;;;16.90;3.83;;;16.60;99.90;;;;;;5024634;28;20042;-60
2023/10/05 12:31:10;;;;;;;16.25;3.92;;;16.90;99.90;;;;;;5020444;28;20076;-61
2023/10/05 12:33:39;;;;;;;18.27;4.53;;;17.00;99.90;;;;;;5012131;28;20105;-60
2023/10/05 12:36:08;;;;;;;13.55;3.53;;;17.00;99.90;;;;;;5022240;28;20548;-60
2023/10/05 12:38:35;;;;;;;15.32;4.00;;;17.10;99.90;;;;;;5013039;28;20132;-59
2023/10/05 12:41:13;;;;;;;14.63;3.63;;;17.20;99.90;;;;;;5020862;28;20077;-60
2023/10/05 12:43:43;;;;;;;20.38;4.13;;;17.30;99.90;;;;;;5004808;28;20060;-60
2023/10/05 12:46:11;;;;;;;12.00;2.63;;;17.40;99.90;;;;;;5018056;28;20084;-60
2023/10/05 12:48:38;;;;;;;12.90;3.28;;;17.50;99.90;;;;;;5018424;28;20485;-59
2023/10/05 12:51:05;;;;;;;16.20;3.78;;;17.70;99.90;;;;;;5020371;28;20063;-60
2023/10/05 12:53:33;;;;;;;13.02;3.10;;;17.70;99.90;;;;;;5017921;28;20113;-60
2023/10/05 12:56:01;;;;;;;19.73;3.72;;;17.70;99.90;;;;;;5015184;28;20049;-58
2023/10/05 12:58:27;;;;;;;8.95;3.20;;;17.80;99.90;;;;;;5020631;28;20404;-57
2023/10/05 13:00:53;;;;;;;13.52;2.58;;;17.70;99.90;;;;;;5019958;28;20444;-58
2023/10/05 13:03:24;;;;;;;8.50;2.53;;;17.70;99.90;;;;;;5004289;28;20513;-58
2023/10/05 13:05:51;;;;;;;13.20;4.30;;;17.90;99.90;;;;;;5016762;28;20064;-58
2023/10/05 13:08:20;;;;;;;11.93;3.17;;;18.00;99.90;;;;;;5020586;28;20072;-58
2023/10/05 13:10:46;;;;;;;9.40;2.70;;;18.10;99.90;;;;;;4993199;28;20349;-56
2023/10/05 13:13:21;;;;;;;6.55;2.40;;;18.10;99.90;;;;;;5019136;28;20123;-57
2023/10/05 13:15:47;;;;;;;8.30;2.95;;;18.10;99.90;;;;;;5000050;28;20044;-58
2023/10/05 13:18:19;;;;;;;13.18;2.88;;;18.10;99.90;;;;;;5019120;28;20072;-58